Terminal Aerodrome Forecast
Issued by NWS

Home | Current Version | Previous Version | Text Only | Print | Product List | Glossary On
Versions: 1 2 3 4 5 6 7 8 9 10 11 12 13 14
398
FTUS42 KMLB 060539
TAFISM
TAF
KISM 060539Z 0606/0706 16006KT P6SM FEW010 OVC150
     FM060800 18005KT P6SM FEW003 OVC008
     FM061500 21017G25KT P6SM VCSH SCT020 BKN040
     FM062200 25011KT P6SM BKN050
     FM070300 26006KT P6SM SCT025=

USA.gov is the U.S. government's official web portal to all federal, state and local government web resources and services.